Time;durP1;ratioP1;P1;durP2;ratioP2;P2;SDS_P1;SDS_P2;PMS_P1;PMS_P2;Temp;Humidity;BMP_temperature;BMP_pressure;BME280_temperature;BME280_humidity;BME280_pressure;Samples;Min_cycle;Max_cycle;Signal;HPM_P1;HPM_P2
2021/10/16 00:02:21;;;;;;;;;;;;;;;;;;4850122;29;20067;-81
2021/10/16 00:04:48;;;;;;;15.57;7.90;;;;;;;;;;4856395;29;19926;-81
2021/10/16 00:07:15;;;;;;;15.68;6.45;;;;;;;;;;4840817;29;20061;-84
2021/10/16 00:09:42;;;;;;;13.52;7.10;;;;;;;;;;4851034;29;20934;-81
2021/10/16 00:12:09;;;;;;;14.40;7.00;;;;;;;;;;4848992;29;20663;-85
2021/10/16 00:14:38;;;;;;;14.40;6.78;;;;;;;;;;4855768;29;20032;-82
2021/10/16 00:17:05;;;;;;;14.48;5.90;;;;;;;;;;4853074;29;20079;-83
2021/10/16 00:19:32;;;;;;;14.23;6.28;;;;;;;;;;4866657;29;20041;-83
2021/10/16 00:21:59;;;;;;;15.77;7.95;;;;;;;;;;4865369;29;20037;-87
2021/10/16 00:24:26;;;;;;;13.30;6.60;;;;;;;;;;4866378;29;20048;-85
2021/10/16 00:26:53;;;;;;;11.70;5.50;;;;;;;;;;4861268;29;20041;-84
2021/10/16 00:29:19;;;;;;;12.90;6.45;;;;;;;;;;4857411;29;20305;-86
2021/10/16 00:31:46;;;;;;;14.40;6.72;;;;;;;;;;4858114;29;20082;-83
2021/10/16 00:34:13;;;;;;;16.17;6.75;;;;;;;;;;4859854;29;20037;-80
2021/10/16 00:36:41;;;;;;;15.63;7.15;;;;;;;;;;4856971;29;20352;-82
2021/10/16 00:39:08;;;;;;;22.45;7.05;;;;;;;;;;4841581;29;20116;-83
2021/10/16 00:41:35;;;;;;;14.25;7.00;;;;;;;;;;4874299;29;20115;-83
2021/10/16 00:44:11;;;;;;;14.70;6.03;;;;;;;;;;4853507;29;20061;-80
2021/10/16 00:46:38;;;;;;;14.65;6.07;;;;;;;;;;4845047;29;20524;-79
2021/10/16 00:49:05;;;;;;;11.93;5.53;;;;;;;;;;4851968;29;20101;-82
2021/10/16 00:51:33;;;;;;;15.00;7.00;;;;;;;;;;4869622;29;20375;-82
2021/10/16 00:54:01;;;;;;;14.18;6.05;;;;;;;;;;4852649;29;20073;-82
2021/10/16 00:56:27;;;;;;;15.05;6.60;;;;;;;;;;4870100;29;20033;-82
2021/10/16 00:58:56;;;;;;;11.25;5.15;;;;;;;;;;4854101;29;20032;-83
2021/10/16 01:01:23;;;;;;;12.23;5.28;;;;;;;;;;4849582;29;20046;-83
2021/10/16 01:03:50;;;;;;;10.05;4.40;;;;;;;;;;4851440;29;20041;-83
2021/10/16 01:06:17;;;;;;;12.27;4.10;;;;;;;;;;4852611;29;20037;-82
2021/10/16 01:08:44;;;;;;;12.45;3.83;;;;;;;;;;4851390;29;20763;-82
2021/10/16 01:11:11;;;;;;;13.30;5.05;;;;;;;;;;4852550;29;20029;-82
2021/10/16 01:13:38;;;;;;;12.20;5.05;;;;;;;;;;4864116;29;20033;-82
2021/10/16 01:16:04;;;;;;;11.57;4.70;;;;;;;;;;4854708;29;20572;-82
2021/10/16 01:18:31;;;;;;;;;;;;;;;;;;4858973;29;20053;-82
2021/10/16 01:21:03;;;;;;;15.85;8.70;;;;;;;;;;4868291;29;20375;-83
2021/10/16 01:23:31;;;;;;;16.33;7.35;;;;;;;;;;4851887;29;20506;-81
2021/10/16 01:25:57;;;;;;;16.30;7.88;;;;;;;;;;4852013;29;20037;-79
2021/10/16 01:28:25;;;;;;;15.98;8.90;;;;;;;;;;4852385;29;20140;-83
2021/10/16 01:30:53;;;;;;;18.17;8.68;;;;;;;;;;4852677;29;20052;-82
2021/10/16 01:33:19;;;;;;;16.60;7.93;;;;;;;;;;4859122;29;20037;-82
2021/10/16 01:36:00;;;;;;;16.98;8.15;;;;;;;;;;4856354;29;20033;-82
2021/10/16 01:38:27;;;;;;;15.45;7.75;;;;;;;;;;4854004;29;20033;-82
2021/10/16 01:40:53;;;;;;;15.00;7.28;;;;;;;;;;4856177;29;20039;-83
2021/10/16 01:43:19;;;;;;;15.05;7.25;;;;;;;;;;4870391;29;20079;-82
2021/10/16 01:45:46;;;;;;;;;;;;;;;;;;4869204;29;20044;-82
2021/10/16 01:48:13;;;;;;;15.30;7.22;;;;;;;;;;4857120;29;20618;-82
2021/10/16 01:50:40;;;;;;;14.40;6.88;;;;;;;;;;4873960;29;20143;-82
2021/10/16 01:53:11;;;;;;;13.55;6.35;;;;;;;;;;4842748;29;20101;-81
2021/10/16 01:55:38;;;;;;;13.27;5.65;;;;;;;;;;4860264;29;20042;-83
2021/10/16 01:58:09;;;;;;;13.07;6.18;;;;;;;;;;4869629;29;20052;-84
2021/10/16 02:00:36;;;;;;;13.82;5.72;;;;;;;;;;4852333;29;20049;-84
2021/10/16 02:03:10;;;;;;;13.43;5.78;;;;;;;;;;4860621;29;20060;-85
2021/10/16 02:05:41;;;;;;;15.93;6.00;;;;;;;;;;4866082;29;20234;-83
2021/10/16 02:08:08;;;;;;;12.63;5.32;;;;;;;;;;4859129;29;20043;-82
2021/10/16 02:10:34;;;;;;;13.90;5.60;;;;;;;;;;4879720;29;20052;-82
2021/10/16 02:13:01;;;;;;;11.00;5.25;;;;;;;;;;4862720;29;20083;-82
2021/10/16 02:15:28;;;;;;;17.33;7.38;;;;;;;;;;4870511;29;20076;-82
2021/10/16 02:17:55;;;;;;;19.73;7.90;;;;;;;;;;4873957;29;20049;-83
2021/10/16 02:20:22;;;;;;;14.07;6.88;;;;;;;;;;4885041;29;20084;-83
2021/10/16 02:22:49;;;;;;;15.50;7.03;;;;;;;;;;4895925;29;20064;-83
2021/10/16 02:25:15;;;;;;;15.25;7.20;;;;;;;;;;4896419;29;20025;-83
2021/10/16 02:27:42;;;;;;;15.63;7.60;;;;;;;;;;4897697;29;20040;-83
2021/10/16 02:30:13;;;;;;;17.02;8.15;;;;;;;;;;4900319;29;20036;-83
2021/10/16 02:32:41;;;;;;;19.98;11.43;;;;;;;;;;4893544;29;20058;-83
2021/10/16 02:35:08;;;;;;;21.65;11.05;;;;;;;;;;4872885;29;20028;-83
2021/10/16 02:37:34;;;;;;;19.75;9.50;;;;;;;;;;4879694;29;20064;-82
2021/10/16 02:40:00;;;;;;;20.25;9.93;;;;;;;;;;4891477;29;20091;-82
2021/10/16 02:42:28;;;;;;;22.23;12.15;;;;;;;;;;4869048;29;20105;-82
2021/10/16 02:44:56;;;;;;;19.15;10.40;;;;;;;;;;4885504;29;20051;-82
2021/10/16 02:47:27;;;;;;;19.67;9.93;;;;;;;;;;4879800;29;20599;-82
2021/10/16 02:49:54;;;;;;;19.80;9.85;;;;;;;;;;4865660;29;20033;-81
2021/10/16 02:52:21;;;;;;;16.08;8.30;;;;;;;;;;4882011;29;20092;-81
2021/10/16 02:54:48;;;;;;;17.55;8.30;;;;;;;;;;4871846;29;21002;-82
2021/10/16 02:57:15;;;;;;;18.52;7.15;;;;;;;;;;4882748;29;20032;-82
2021/10/16 02:59:42;;;;;;;15.05;7.15;;;;;;;;;;4879926;29;20032;-81
2021/10/16 03:02:09;;;;;;;15.65;7.90;;;;;;;;;;4870847;29;20039;-82
2021/10/16 03:04:35;;;;;;;15.88;8.77;;;;;;;;;;4856749;29;20129;-81
2021/10/16 03:07:02;;;;;;;17.92;7.72;;;;;;;;;;4870124;29;20502;-81
2021/10/16 03:09:28;;;;;;;12.20;5.90;;;;;;;;;;4868738;29;20381;-83
2021/10/16 03:11:55;;;;;;;16.13;8.05;;;;;;;;;;4872080;29;20037;-81
2021/10/16 03:14:21;;;;;;;17.45;7.97;;;;;;;;;;4874383;29;20083;-81
2021/10/16 03:16:49;;;;;;;16.63;7.35;;;;;;;;;;4877084;29;20025;-81
2021/10/16 03:19:17;;;;;;;15.52;7.68;;;;;;;;;;4871882;29;20202;-83
2021/10/16 03:21:44;;;;;;;16.35;7.75;;;;;;;;;;4867675;29;20040;-82
2021/10/16 03:24:11;;;;;;;15.60;6.95;;;;;;;;;;4869625;29;20037;-82
2021/10/16 03:26:38;;;;;;;16.88;7.28;;;;;;;;;;4855962;29;20770;-82
2021/10/16 03:29:04;;;;;;;13.73;6.10;;;;;;;;;;4882185;29;20061;-83
2021/10/16 03:31:31;;;;;;;;;;;;;;;;;;4872947;29;20044;-82
2021/10/16 03:33:58;;;;;;;14.97;7.20;;;;;;;;;;4869089;29;20042;-80
2021/10/16 03:36:24;;;;;;;17.15;8.48;;;;;;;;;;4853739;29;20334;-81
2021/10/16 03:38:51;;;;;;;17.23;7.60;;;;;;;;;;4873589;29;20040;-81
2021/10/16 03:41:17;;;;;;;17.20;7.68;;;;;;;;;;4871917;29;20485;-82
2021/10/16 03:43:44;;;;;;;14.23;7.35;;;;;;;;;;4862515;29;20033;-81
2021/10/16 03:46:11;;;;;;;15.40;7.28;;;;;;;;;;4851622;29;20070;-81
2021/10/16 03:48:38;;;;;;;14.15;6.57;;;;;;;;;;4872758;29;20037;-83
2021/10/16 03:51:05;;;;;;;13.73;6.00;;;;;;;;;;4876156;29;20504;-80
2021/10/16 03:53:32;;;;;;;17.80;7.80;;;;;;;;;;4871313;29;20024;-81
2021/10/16 03:55:58;;;;;;;20.90;11.80;;;;;;;;;;4861524;29;20028;-82
2021/10/16 03:58:25;;;;;;;13.07;7.43;;;;;;;;;;4875505;29;20041;-82
2021/10/16 04:00:53;;;;;;;16.83;7.55;;;;;;;;;;4856336;29;20097;-82
2021/10/16 04:03:20;;;;;;;18.88;9.43;;;;;;;;;;4858437;29;20041;-81
2021/10/16 04:05:47;;;;;;;15.15;8.50;;;;;;;;;;4855071;29;20033;-81
2021/10/16 04:08:14;;;;;;;14.35;7.68;;;;;;;;;;4853517;29;20032;-81
2021/10/16 04:10:41;;;;;;;12.45;6.72;;;;;;;;;;4878376;29;20048;-81
2021/10/16 04:13:08;;;;;;;16.10;7.18;;;;;;;;;;4853310;29;20045;-83
2021/10/16 04:15:34;;;;;;;12.82;6.65;;;;;;;;;;4877946;29;20041;-82
2021/10/16 04:18:01;;;;;;;11.52;5.22;;;;;;;;;;4854728;29;20418;-84
2021/10/16 04:20:28;;;;;;;12.80;6.00;;;;;;;;;;4848284;29;20164;-81
2021/10/16 04:22:54;;;;;;;11.63;5.93;;;;;;;;;;4857269;29;20034;-81
2021/10/16 04:25:21;;;;;;;12.82;6.47;;;;;;;;;;4847838;29;20648;-80
2021/10/16 04:27:47;;;;;;;12.27;6.43;;;;;;;;;;4851208;29;20047;-82
2021/10/16 04:30:13;;;;;;;;;;;;;;;;;;4852783;29;20397;-84
2021/10/16 04:32:40;;;;;;;14.75;6.80;;;;;;;;;;4865946;29;20408;-82
2021/10/16 04:35:08;;;;;;;13.40;6.65;;;;;;;;;;4859802;29;20033;-83
2021/10/16 04:37:34;;;;;;;13.75;6.30;;;;;;;;;;4860398;29;20037;-83
2021/10/16 04:40:35;;;;;;;14.23;6.25;;;;;;;;;;4849673;29;20454;-83
2021/10/16 04:42:56;;;;;;;15.93;7.05;;;;;;;;;;4855346;29;21137;-82
2021/10/16 04:45:23;;;;;;;13.35;6.70;;;;;;;;;;4849713;29;20030;-83
2021/10/16 04:47:49;;;;;;;;;;;;;;;;;;4855719;29;20210;-82
2021/10/16 04:50:16;;;;;;;14.57;7.03;;;;;;;;;;4850487;29;19942;-82
2021/10/16 04:52:43;;;;;;;13.02;7.43;;;;;;;;;;4853142;29;20441;-82
2021/10/16 04:55:09;;;;;;;13.25;6.53;;;;;;;;;;4852733;29;20053;-82
2021/10/16 04:57:36;;;;;;;12.85;6.68;;;;;;;;;;4855631;29;20033;-82
2021/10/16 05:00:04;;;;;;;12.43;6.00;;;;;;;;;;4850285;29;20037;-82
2021/10/16 05:02:31;;;;;;;15.25;7.18;;;;;;;;;;4850899;29;20798;-82
2021/10/16 05:04:58;;;;;;;12.65;5.90;;;;;;;;;;4852833;29;20044;-83
2021/10/16 05:07:24;;;;;;;10.52;5.28;;;;;;;;;;4847731;29;20461;-82
2021/10/16 05:09:51;;;;;;;12.63;5.82;;;;;;;;;;4854214;29;20569;-82
2021/10/16 05:12:17;;;;;;;16.05;8.05;;;;;;;;;;4847817;29;20033;-82
2021/10/16 05:14:45;;;;;;;19.52;8.38;;;;;;;;;;4866288;29;20053;-83
2021/10/16 05:17:11;;;;;;;16.20;8.13;;;;;;;;;;4850471;29;20587;-82
2021/10/16 05:19:38;;;;;;;17.33;8.02;;;;;;;;;;4866274;29;20041;-81
2021/10/16 05:22:05;;;;;;;15.55;8.00;;;;;;;;;;4868285;29;20049;-82
2021/10/16 05:24:32;;;;;;;13.48;6.57;;;;;;;;;;4855194;29;20411;-81
2021/10/16 05:26:59;;;;;;;14.15;6.13;;;;;;;;;;4858763;29;20068;-82
2021/10/16 05:29:26;;;;;;;14.57;5.65;;;;;;;;;;4870404;29;20026;-84
2021/10/16 05:31:53;;;;;;;13.57;5.53;;;;;;;;;;4876647;29;20067;-85
2021/10/16 05:34:20;;;;;;;12.13;5.70;;;;;;;;;;4859595;29;20556;-84
2021/10/16 05:36:48;;;;;;;12.02;5.53;;;;;;;;;;4863611;29;20040;-84
2021/10/16 05:39:14;;;;;;;10.57;4.88;;;;;;;;;;4856560;29;20529;-85
2021/10/16 05:41:41;;;;;;;13.13;6.70;;;;;;;;;;4875003;29;20049;-82
2021/10/16 05:44:07;;;;;;;13.88;6.55;;;;;;;;;;4876389;29;20029;-81
2021/10/16 05:46:36;;;;;;;13.68;6.55;;;;;;;;;;4855925;29;20051;-81
2021/10/16 05:49:05;;;;;;;15.13;5.88;;;;;;;;;;4859694;29;20067;-81
2021/10/16 05:51:31;;;;;;;16.52;7.05;;;;;;;;;;4851199;29;20109;-83
2021/10/16 05:53:57;;;;;;;18.15;7.20;;;;;;;;;;4872894;29;20056;-83
2021/10/16 05:56:24;;;;;;;;;;;;;;;;;;4877533;29;20104;-84
2021/10/16 05:58:51;;;;;;;18.08;6.97;;;;;;;;;;4874306;29;19918;-84
2021/10/16 06:01:18;;;;;;;13.70;7.07;;;;;;;;;;4858304;29;20051;-85
2021/10/16 06:03:45;;;;;;;15.68;6.93;;;;;;;;;;4865439;29;20041;-83
2021/10/16 06:06:12;;;;;;;13.40;6.00;;;;;;;;;;4869181;29;20037;-83
2021/10/16 06:08:39;;;;;;;13.20;5.97;;;;;;;;;;4883858;29;20057;-83
2021/10/16 06:11:06;;;;;;;14.57;6.53;;;;;;;;;;4881119;29;20025;-83
2021/10/16 06:13:33;;;;;;;15.70;6.97;;;;;;;;;;4863142;29;20115;-82
2021/10/16 06:15:59;;;;;;;14.13;6.20;;;;;;;;;;4886757;29;20037;-83
2021/10/16 06:18:26;;;;;;;14.70;5.72;;;;;;;;;;4901370;29;20099;-83
2021/10/16 06:20:53;;;;;;;14.65;5.70;;;;;;;;;;4874112;29;20047;-84
2021/10/16 06:23:21;;;;;;;13.95;5.93;;;;;;;;;;4877382;29;20084;-84
2021/10/16 06:25:47;;;;;;;12.68;5.60;;;;;;;;;;4882568;29;20028;-84
2021/10/16 06:28:14;;;;;;;10.77;4.47;;;;;;;;;;4882930;29;20040;-84
2021/10/16 06:30:41;;;;;;;12.80;5.30;;;;;;;;;;4892551;29;20044;-84
2021/10/16 06:33:08;;;;;;;12.05;5.00;;;;;;;;;;4863959;29;20068;-84
2021/10/16 06:35:41;;;;;;;14.77;6.18;;;;;;;;;;4879037;29;20052;-83
2021/10/16 06:38:09;;;;;;;16.42;7.07;;;;;;;;;;4874094;29;20028;-84
2021/10/16 06:40:36;;;;;;;20.27;9.00;;;;;;;;;;4852754;29;20104;-84
2021/10/16 06:43:03;;;;;;;19.95;9.57;;;;;;;;;;4885177;29;20095;-86
2021/10/16 06:45:30;;;;;;;18.92;9.20;;;;;;;;;;4871815;29;20048;-84
2021/10/16 06:47:57;;;;;;;19.65;10.45;;;;;;;;;;4861455;29;20504;-84
2021/10/16 06:50:25;;;;;;;26.85;11.40;;;;;;;;;;4866671;29;20037;-84
2021/10/16 06:52:52;;;;;;;22.73;10.05;;;;;;;;;;4888860;29;20359;-85
2021/10/16 06:55:19;;;;;;;18.58;9.30;;;;;;;;;;4870781;29;20132;-84
2021/10/16 06:57:46;;;;;;;19.00;8.80;;;;;;;;;;4867172;29;20045;-83
2021/10/16 07:00:14;;;;;;;18.48;7.85;;;;;;;;;;4865534;29;20153;-84
2021/10/16 07:02:41;;;;;;;23.25;10.00;;;;;;;;;;4879615;29;20044;-84
2021/10/16 07:05:08;;;;;;;22.65;9.05;;;;;;;;;;4879407;29;20029;-86
2021/10/16 07:07:35;;;;;;;19.23;8.23;;;;;;;;;;4866832;29;20099;-83
2021/10/16 07:10:02;;;;;;;19.42;8.18;;;;;;;;;;4866219;29;20044;-85
2021/10/16 07:12:32;;;;;;;16.52;6.43;;;;;;;;;;4873863;29;21018;-85
2021/10/16 07:14:59;;;;;;;15.23;6.72;;;;;;;;;;4859202;29;20392;-84
2021/10/16 07:17:26;;;;;;;19.95;8.45;;;;;;;;;;4872580;29;20135;-84
2021/10/16 07:19:53;;;;;;;21.60;8.88;;;;;;;;;;4856774;29;20095;-83
2021/10/16 07:22:20;;;;;;;23.35;9.15;;;;;;;;;;4854410;29;20103;-83
2021/10/16 07:24:46;;;;;;;21.52;8.75;;;;;;;;;;4853602;29;20489;-82
2021/10/16 07:27:13;;;;;;;28.52;10.75;;;;;;;;;;4855655;29;20043;-83
2021/10/16 07:29:39;;;;;;;25.40;11.35;;;;;;;;;;4843217;29;20041;-84
2021/10/16 07:32:06;;;;;;;22.75;11.90;;;;;;;;;;4841562;29;20408;-84
2021/10/16 07:34:32;;;;;;;21.63;9.85;;;;;;;;;;4856303;29;20046;-83
2021/10/16 07:36:59;;;;;;;33.58;11.23;;;;;;;;;;4866971;29;20044;-82
2021/10/16 07:39:25;;;;;;;34.45;14.02;;;;;;;;;;4862151;29;20068;-81
2021/10/16 07:41:51;;;;;;;;;;;;;;;;;;4861477;29;20635;-84
2021/10/16 07:44:17;;;;;;;30.80;14.07;;;;;;;;;;4862523;29;19912;-84
2021/10/16 07:46:44;;;;;;;;;;;;;;;;;;4854519;29;20044;-83
2021/10/16 07:49:11;;;;;;;;;;;;;;;;;;4854198;29;19920;-84
2021/10/16 07:51:38;;;;;;;40.75;26.35;;;;;;;;;;4863627;29;19973;-81
2021/10/16 07:54:04;;;;;;;42.22;28.63;;;;;;;;;;4849592;29;20152;-81
2021/10/16 07:56:31;;;;;;;46.92;29.85;;;;;;;;;;4838413;29;20366;-82
2021/10/16 07:58:57;;;;;;;44.80;28.05;;;;;;;;;;4837365;29;20033;-82
2021/10/16 08:01:24;;;;;;;41.38;26.10;;;;;;;;;;4850595;29;20101;-82
2021/10/16 08:03:52;;;;;;;49.28;33.85;;;;;;;;;;4850593;29;20060;-83
2021/10/16 08:06:19;;;;;;;45.72;31.25;;;;;;;;;;4851678;29;20886;-83
2021/10/16 08:08:45;;;;;;;37.78;25.65;;;;;;;;;;4853481;29;20041;-81
2021/10/16 08:11:12;;;;;;;32.88;21.95;;;;;;;;;;4853201;29;20112;-81
2021/10/16 08:13:38;;;;;;;29.92;20.02;;;;;;;;;;4855214;29;20484;-81
2021/10/16 08:16:05;;;;;;;29.77;19.38;;;;;;;;;;4851732;29;20573;-83
2021/10/16 08:18:32;;;;;;;28.63;14.95;;;;;;;;;;4846101;29;20045;-82
2021/10/16 08:20:58;;;;;;;23.42;13.85;;;;;;;;;;4848020;29;20053;-82
2021/10/16 08:23:25;;;;;;;23.35;12.23;;;;;;;;;;4848513;29;20501;-82
2021/10/16 08:25:52;;;;;;;24.40;12.32;;;;;;;;;;4853019;29;20043;-82
2021/10/16 08:28:20;;;;;;;20.52;11.27;;;;;;;;;;4850000;29;20128;-81
2021/10/16 08:30:51;;;;;;;34.33;16.15;;;;;;;;;;4852424;29;20041;-82
2021/10/16 08:33:22;;;;;;;41.60;21.25;;;;;;;;;;4844760;29;20033;-83
2021/10/16 08:35:48;;;;;;;36.00;19.25;;;;;;;;;;4849316;29;20132;-82
2021/10/16 08:38:15;;;;;;;26.92;16.55;;;;;;;;;;4852343;29;20036;-82
2021/10/16 08:40:42;;;;;;;34.38;21.48;;;;;;;;;;4818812;29;20044;-83
2021/10/16 08:43:09;;;;;;;24.38;15.07;;;;;;;;;;4842724;29;20045;-83
2021/10/16 08:45:37;;;;;;;21.77;11.35;;;;;;;;;;4872945;29;20045;-82
2021/10/16 08:48:08;;;;;;;18.50;9.18;;;;;;;;;;4872899;29;20045;-84
2021/10/16 08:50:36;;;;;;;16.88;7.25;;;;;;;;;;4854343;29;20040;-83
2021/10/16 08:53:04;;;;;;;14.85;6.70;;;;;;;;;;4871322;29;20105;-83
2021/10/16 08:55:33;;;;;;;14.52;7.07;;;;;;;;;;4845383;29;20056;-83
2021/10/16 08:57:59;;;;;;;18.13;8.52;;;;;;;;;;4854979;29;20088;-82
2021/10/16 09:01:14;;;;;;;14.35;6.43;;;;;;;;;;4848232;29;21744;-83
2021/10/16 09:03:45;;;;;;;17.23;7.40;;;;;;;;;;4853938;29;20053;-82
2021/10/16 09:06:33;;;;;;;14.13;6.05;;;;;;;;;;4849255;29;20469;-83
2021/10/16 09:09:10;;;;;;;14.75;5.05;;;;;;;;;;4851852;29;20060;-83
2021/10/16 09:11:40;;;;;;;13.18;5.50;;;;;;;;;;4860166;29;20034;-85
2021/10/16 09:14:08;;;;;;;14.30;4.97;;;;;;;;;;4855725;29;20072;-85
2021/10/16 09:16:44;;;;;;;11.82;5.18;;;;;;;;;;4856691;29;20041;-85
2021/10/16 09:19:23;;;;;;;14.48;7.00;;;;;;;;;;4864170;29;20053;-85
2021/10/16 09:22:01;;;;;;;13.13;6.97;;;;;;;;;;4866133;29;20052;-86
2021/10/16 09:24:35;;;;;;;15.95;7.22;;;;;;;;;;4855877;29;21944;-85
2021/10/16 09:27:08;;;;;;;15.13;6.55;;;;;;;;;;4874035;29;20942;-85
2021/10/16 09:29:36;;;;;;;15.73;6.88;;;;;;;;;;4864895;29;20061;-85
2021/10/16 09:32:15;;;;;;;12.00;5.00;;;;;;;;;;4860430;29;20041;-84
2021/10/16 09:34:42;;;;;;;12.20;5.00;;;;;;;;;;4876670;29;20829;-86
2021/10/16 09:37:10;;;;;;;11.20;3.72;;;;;;;;;;4864796;29;20045;-84
2021/10/16 09:39:38;;;;;;;10.05;3.72;;;;;;;;;;4860518;29;20048;-84
2021/10/16 09:42:04;;;;;;;10.55;3.92;;;;;;;;;;4866833;29;20448;-85
2021/10/16 09:44:32;;;;;;;10.43;3.70;;;;;;;;;;4862905;29;20252;-85
2021/10/16 09:47:04;;;;;;;11.32;4.10;;;;;;;;;;4864685;29;20033;-84
2021/10/16 09:49:32;;;;;;;8.90;3.55;;;;;;;;;;4875696;29;20041;-83
2021/10/16 09:51:59;;;;;;;10.88;3.35;;;;;;;;;;4875323;29;20045;-85
2021/10/16 09:54:27;;;;;;;13.48;3.28;;;;;;;;;;4872674;29;20045;-86
2021/10/16 09:56:54;;;;;;;11.27;3.85;;;;;;;;;;4871963;29;20045;-84
2021/10/16 09:59:25;;;;;;;14.07;4.25;;;;;;;;;;4866651;29;20105;-85
2021/10/16 10:01:51;;;;;;;8.82;2.85;;;;;;;;;;4867736;29;20045;-84
2021/10/16 10:04:20;;;;;;;7.93;2.92;;;;;;;;;;4864861;29;20041;-84
2021/10/16 10:06:47;;;;;;;9.65;3.10;;;;;;;;;;4865227;29;20030;-85
2021/10/16 10:09:14;;;;;;;10.10;3.13;;;;;;;;;;4861237;29;20041;-84
2021/10/16 10:11:45;;;;;;;9.52;3.80;;;;;;;;;;4863956;29;20495;-85
2021/10/16 10:14:13;;;;;;;8.90;3.25;;;;;;;;;;4875325;29;20438;-84
2021/10/16 10:16:39;;;;;;;10.73;3.90;;;;;;;;;;4872921;29;20045;-84
2021/10/16 10:19:07;;;;;;;12.85;4.13;;;;;;;;;;4860592;29;20076;-84
2021/10/16 10:21:36;;;;;;;9.68;3.70;;;;;;;;;;4861268;29;20053;-84
2021/10/16 10:24:09;;;;;;;15.98;6.10;;;;;;;;;;4877364;29;20040;-84
2021/10/16 10:26:38;;;;;;;16.58;6.65;;;;;;;;;;4862767;29;20647;-83
2021/10/16 10:29:06;;;;;;;14.82;7.07;;;;;;;;;;4861812;29;20049;-83
2021/10/16 10:31:51;;;;;;;16.33;8.30;;;;;;;;;;4860196;29;20105;-84
2021/10/16 10:34:20;;;;;;;14.70;8.13;;;;;;;;;;4856096;29;20045;-83
2021/10/16 10:37:04;;;;;;;18.35;7.45;;;;;;;;;;4866101;29;20052;-83
2021/10/16 10:39:32;;;;;;;16.55;7.57;;;;;;;;;;4860612;29;20045;-85
2021/10/16 10:42:02;;;;;;;16.02;6.55;;;;;;;;;;4869245;29;20077;-87
2021/10/16 10:44:48;;;;;;;15.57;7.65;;;;;;;;;;4873771;29;20739;-86
2021/10/16 10:47:14;;;;;;;;;;;;;;;;;;4871485;29;20123;-87
2021/10/16 10:49:41;;;;;;;14.88;7.25;;;;;;;;;;4865167;29;19920;-83
2021/10/16 10:52:08;;;;;;;14.30;6.43;;;;;;;;;;4849396;29;20427;-83
2021/10/16 10:54:37;;;;;;;15.73;6.20;;;;;;;;;;4849500;29;20037;-84
2021/10/16 10:57:03;;;;;;;13.45;6.22;;;;;;;;;;4853127;29;20066;-85
2021/10/16 10:59:29;;;;;;;13.00;5.45;;;;;;;;;;4850317;29;21294;-86
2021/10/16 11:02:04;;;;;;;12.15;5.22;;;;;;;;;;4857862;29;20044;-84
2021/10/16 11:04:35;;;;;;;14.27;6.20;;;;;;;;;;4863050;29;20112;-84
2021/10/16 11:07:03;;;;;;;14.82;6.38;;;;;;;;;;4859082;29;20068;-84
2021/10/16 11:09:31;;;;;;;17.10;6.28;;;;;;;;;;4856810;29;20106;-88
2021/10/16 11:11:58;;;;;;;13.50;6.20;;;;;;;;;;4874118;29;20268;-84
2021/10/16 11:14:32;;;;;;;15.25;5.65;;;;;;;;;;4858080;29;20021;-86
2021/10/16 11:17:10;;;;;;;12.60;5.75;;;;;;;;;;4859676;29;20478;-89
2021/10/16 11:19:50;;;;;;;14.48;4.93;;;;;;;;;;4848087;29;20908;-86
2021/10/16 11:22:16;;;;;;;13.07;5.68;;;;;;;;;;4845155;29;20041;-87
2021/10/16 11:24:42;;;;;;;14.45;5.07;;;;;;;;;;4838445;29;20061;-87
2021/10/16 11:27:10;;;;;;;12.55;5.20;;;;;;;;;;4846284;29;20106;-87
2021/10/16 11:29:38;;;;;;;12.40;5.18;;;;;;;;;;4833099;29;20117;-86
2021/10/16 11:32:20;;;;;;;14.07;5.90;;;;;;;;;;4835849;29;20120;-88
2021/10/16 11:35:04;;;;;;;13.85;6.00;;;;;;;;;;4844425;29;20042;-88
2021/10/16 11:37:36;;;;;;;14.95;5.32;;;;;;;;;;4835169;29;20036;-89
2021/10/16 11:40:05;;;;;;;12.02;5.72;;;;;;;;;;4851114;29;20033;-87
2021/10/16 11:42:32;;;;;;;13.93;5.82;;;;;;;;;;4838747;29;20054;-87
2021/10/16 11:44:59;;;;;;;12.10;5.10;;;;;;;;;;4837632;29;20087;-87
2021/10/16 11:47:25;;;;;;;15.07;5.78;;;;;;;;;;4838117;29;20038;-89
2021/10/16 11:49:52;;;;;;;12.90;5.35;;;;;;;;;;4833430;29;20775;-88
2021/10/16 11:52:24;;;;;;;14.07;5.72;;;;;;;;;;4835489;29;20041;-87
2021/10/16 11:55:10;;;;;;;15.13;4.95;;;;;;;;;;4848855;29;20605;-87
2021/10/16 11:57:36;;;;;;;11.20;5.18;;;;;;;;;;4839375;29;20760;-87
2021/10/16 12:00:23;;;;;;;11.25;4.13;;;;;;;;;;4838453;29;20049;-89
2021/10/16 12:02:51;;;;;;;12.27;4.50;;;;;;;;;;4836034;29;20295;-86
2021/10/16 12:05:18;;;;;;;12.77;4.63;;;;;;;;;;4833586;29;20038;-89
2021/10/16 12:07:46;;;;;;;10.25;4.28;;;;;;;;;;4835895;29;20648;-87
2021/10/16 12:10:38;;;;;;;13.30;4.30;;;;;;;;;;4833547;29;20045;-86
2021/10/16 12:13:05;;;;;;;10.55;4.00;;;;;;;;;;4837271;29;20045;-91
2021/10/16 12:15:40;;;;;;;10.88;4.50;;;;;;;;;;4846177;29;20045;-88
2021/10/16 12:18:08;;;;;;;13.45;6.68;;;;;;;;;;4851201;29;20129;-84
2021/10/16 12:20:52;;;;;;;14.48;5.72;;;;;;;;;;4862623;29;20033;-86
2021/10/16 12:23:18;;;;;;;20.30;11.65;;;;;;;;;;4844948;29;20037;-85
2021/10/16 12:25:49;;;;;;;32.40;26.27;;;;;;;;;;4849724;29;20043;-83
2021/10/16 12:28:16;;;;;;;12.40;5.90;;;;;;;;;;4842159;29;20094;-87
2021/10/16 12:31:17;;;;;;;14.13;4.80;;;;;;;;;;4845968;29;20185;-84
2021/10/16 12:34:02;;;;;;;10.38;4.47;;;;;;;;;;4849002;29;20049;-84
2021/10/16 12:37:05;;;;;;;12.60;5.32;;;;;;;;;;4857691;29;21876;-84
2021/10/16 12:39:35;;;;;;;11.23;4.68;;;;;;;;;;4790721;29;20600;-84
2021/10/16 12:42:22;;;;;;;14.73;4.97;;;;;;;;;;4807482;29;20351;-85
2021/10/16 12:44:50;;;;;;;15.15;4.25;;;;;;;;;;4794755;29;20044;-86
2021/10/16 12:47:30;;;;;;;14.07;4.88;;;;;;;;;;4793613;29;20697;-84
2021/10/16 12:49:57;;;;;;;11.93;4.95;;;;;;;;;;4812977;29;20076;-82
2021/10/16 12:52:27;;;;;;;12.77;4.60;;;;;;;;;;4801235;29;20044;-85
2021/10/16 12:54:57;;;;;;;12.52;4.53;;;;;;;;;;4797711;29;20042;-82
2021/10/16 12:57:24;;;;;;;13.13;4.72;;;;;;;;;;4812569;29;20175;-84
2021/10/16 12:59:51;;;;;;;15.48;4.97;;;;;;;;;;4800911;29;20146;-84
2021/10/16 13:02:18;;;;;;;10.30;4.25;;;;;;;;;;4799986;29;20739;-84
2021/10/16 13:04:45;;;;;;;11.43;4.00;;;;;;;;;;4820149;29;20041;-83
2021/10/16 13:07:12;;;;;;;11.68;4.93;;;;;;;;;;4811372;29;20577;-85
2021/10/16 13:09:38;;;;;;;12.93;5.20;;;;;;;;;;4784670;29;20043;-85
2021/10/16 13:12:05;;;;;;;14.40;4.68;;;;;;;;;;4782093;29;20035;-84
2021/10/16 13:14:31;;;;;;;12.07;4.22;;;;;;;;;;4865802;29;20758;-86
2021/10/16 13:16:57;;;;;;;12.15;4.43;;;;;;;;;;4864557;29;20059;-86
2021/10/16 13:19:24;;;;;;;13.05;4.47;;;;;;;;;;4879719;29;20052;-86
2021/10/16 13:21:51;;;;;;;13.88;4.25;;;;;;;;;;4858199;29;20075;-85
2021/10/16 13:24:17;;;;;;;10.10;3.70;;;;;;;;;;4864307;29;20053;-85
2021/10/16 13:26:44;;;;;;;11.63;3.72;;;;;;;;;;4890859;29;20039;-86
2021/10/16 13:29:11;;;;;;;12.40;3.95;;;;;;;;;;4893472;29;20045;-86
2021/10/16 13:31:38;;;;;;;12.38;4.28;;;;;;;;;;4877823;29;20033;-87
2021/10/16 13:34:05;;;;;;;11.90;3.72;;;;;;;;;;4879250;29;20045;-86
2021/10/16 13:36:32;;;;;;;11.70;3.75;;;;;;;;;;4890064;29;20064;-86
2021/10/16 13:38:59;;;;;;;10.60;3.53;;;;;;;;;;4864637;29;20044;-86
2021/10/16 13:41:27;;;;;;;10.85;3.90;;;;;;;;;;4870220;29;20606;-87
2021/10/16 13:43:54;;;;;;;10.82;4.43;;;;;;;;;;4877247;29;20033;-87
2021/10/16 13:46:21;;;;;;;11.38;3.88;;;;;;;;;;4865850;29;20033;-87
2021/10/16 13:48:48;;;;;;;12.40;3.80;;;;;;;;;;4887339;29;20029;-87
2021/10/16 13:51:15;;;;;;;10.07;4.05;;;;;;;;;;4875353;29;20802;-86
2021/10/16 13:53:42;;;;;;;9.35;3.90;;;;;;;;;;4867862;29;20863;-87
2021/10/16 13:56:10;;;;;;;9.82;3.50;;;;;;;;;;4866128;29;20036;-83
2021/10/16 13:58:37;;;;;;;10.93;3.90;;;;;;;;;;4863495;29;20034;-86
2021/10/16 14:01:04;;;;;;;10.95;4.50;;;;;;;;;;4863622;29;20059;-86
2021/10/16 14:03:31;;;;;;;9.18;3.40;;;;;;;;;;4872749;29;20593;-87
2021/10/16 14:05:58;;;;;;;11.57;4.70;;;;;;;;;;4859654;29;20038;-87
2021/10/16 14:08:25;;;;;;;12.93;5.07;;;;;;;;;;4857992;29;20033;-87
2021/10/16 14:10:51;;;;;;;11.00;4.07;;;;;;;;;;4874416;29;20041;-88
2021/10/16 14:13:17;;;;;;;15.13;6.45;;;;;;;;;;4862727;29;20044;-87
2021/10/16 14:15:44;;;;;;;15.68;5.40;;;;;;;;;;4876471;29;20045;-86
2021/10/16 14:18:11;;;;;;;10.43;3.95;;;;;;;;;;4858231;29;20060;-87
2021/10/16 14:20:37;;;;;;;13.70;5.93;;;;;;;;;;4861256;29;20055;-85
2021/10/16 14:23:04;;;;;;;13.40;4.10;;;;;;;;;;4875805;29;20044;-86
2021/10/16 14:25:31;;;;;;;12.77;5.50;;;;;;;;;;4855046;29;20048;-86
2021/10/16 14:27:58;;;;;;;18.58;7.72;;;;;;;;;;4862298;29;20033;-85
2021/10/16 14:30:25;;;;;;;18.15;7.22;;;;;;;;;;4857278;29;21067;-84
2021/10/16 14:32:52;;;;;;;15.57;6.10;;;;;;;;;;4886291;29;20453;-84
2021/10/16 14:35:19;;;;;;;13.88;5.63;;;;;;;;;;4862132;29;20044;-85
2021/10/16 14:37:47;;;;;;;12.20;4.78;;;;;;;;;;4878117;29;20029;-84
2021/10/16 14:40:13;;;;;;;15.27;5.57;;;;;;;;;;4871886;29;20428;-84
2021/10/16 14:42:39;;;;;;;14.13;5.03;;;;;;;;;;4876686;29;20032;-84